Temp: 2.6°C   Baro: 1026.7mb
  Wind: 0.9mph   Dir: ESE (123°)
  Rain: 0.0mm (0.0mm/hr)
  Solar: 123W/m2  Hum: 97%

Historic data

Bath Spa Weather Station Historical Data
Daily Summary for September 27, 2022 Units:  English    Metric   Both
Daily Weekly Monthly Yearly Custom
  High: Low: Average:
Temperature: 57.6 °F 47.2 °F 52.9 °F
Dew Point: 50 °F 42.3 °F 46.5 °F
Humidity: 88% 70% 79%
Wind Speed: 13.3mph 0mph 4.7mph
Wind Gust: 25mph - -
Wind- - WNW
Pressure: 29.73 in 29.56 in -
Precipitation: 0.00 in    
Historical Graphs
 
 
Tabular Data for September 27, 2022
Time Temperature Dew Point Pressure Wind Wind Speed Wind Gust Humidity Rainfall Rate (Hourly) solar
00:09 51.3 °F 46.9 °F 29.72 in WNW 5 mph 9 mph 85% 0.00 in 0 W/m2
00:14 51.1 °F 46.8 °F 29.72 in West 4.3 mph 7 mph 85% 0.00 in 0 W/m2
00:19 51.2 °F 46.7 °F 29.72 in WNW 3.3 mph 8 mph 84.4% 0.00 in 0 W/m2
00:24 51.1 °F 46.4 °F 29.72 in WNW 4 mph 6 mph 84% 0.00 in 0 W/m2
00:29 51.2 °F 46.5 °F 29.72 in WNW 4.6 mph 8 mph 84% 0.00 in 0 W/m2
00:34 51.3 °F 46.3 °F 29.72 in WNW 4.7 mph 10 mph 83.2% 0.00 in 0 W/m2
00:39 51.3 °F 46.2 °F 29.73 in WNW 3.4 mph 8 mph 83% 0.00 in 0 W/m2
00:44 51.3 °F 46 °F 29.73 in WNW 2.9 mph 8 mph 82.2% 0.00 in 0 W/m2
00:49 51.3 °F 46 °F 29.73 in WNW 3.3 mph 7 mph 82% 0.00 in 0 W/m2
00:54 51.3 °F 46 °F 29.73 in West 3.6 mph 7 mph 82% 0.00 in 0 W/m2
00:59 51.3 °F 46 °F 29.73 in West 3.2 mph 4 mph 82% 0.00 in 0 W/m2
01:04 51.3 °F 46 °F 29.73 in West 2.5 mph 5 mph 82% 0.00 in 0 W/m2
01:09 51.3 °F 46 °F 29.73 in WNW 3.7 mph 6 mph 82% 0.00 in 0 W/m2
01:14 51.3 °F 46 °F 29.73 in WNW 3.2 mph 6 mph 82% 0.00 in 0 W/m2
01:19 51.3 °F 45.9 °F 29.73 in WNW 2.9 mph 7 mph 81.6% 0.00 in 0 W/m2
01:24 51.3 °F 45.7 °F 29.73 in WNW 3.8 mph 6 mph 81% 0.00 in 0 W/m2
01:29 51.3 °F 45.7 °F 29.73 in NW 0.6 mph 5 mph 81% 0.00 in 0 W/m2
01:34 51.3 °F 45.7 °F 29.73 in West 4.4 mph 8 mph 81% 0.00 in 0 W/m2
01:39 51.3 °F 45.7 °F 29.73 in WNW 2.6 mph 7 mph 81% 0.00 in 0 W/m2
01:44 51.2 °F 45.6 °F 29.73 in WNW 2.1 mph 4 mph 81% 0.00 in 0 W/m2
01:49 51.1 °F 45.5 °F 29.73 in WNW 3.1 mph 8 mph 81% 0.00 in 0 W/m2
01:54 51.1 °F 45.5 °F 29.73 in West 2 mph 7 mph 81% 0.00 in 0 W/m2
01:59 51.1 °F 45.5 °F 29.73 in West 2.1 mph 5 mph 81% 0.00 in 0 W/m2
02:04 51 °F 45.6 °F 29.73 in WNW 2.1 mph 7 mph 81.6% 0.00 in 0 W/m2
02:09 50.9 °F 45.5 °F 29.73 in WNW 3.7 mph 6 mph 81.6% 0.00 in 0 W/m2
02:14 50.8 °F 45.6 °F 29.73 in WNW 3.7 mph 6 mph 82% 0.00 in 0 W/m2
02:19 50.7 °F 45.5 °F 29.72 in West 3.6 mph 6 mph 82% 0.00 in 0 W/m2
02:24 50.7 °F 45.5 °F 29.72 in West 2.8 mph 5 mph 82% 0.00 in 0 W/m2
02:29 50.7 °F 45.2 °F 29.72 in West 1.9 mph 5 mph 81.2% 0.00 in 0 W/m2
02:34 50.5 °F 45 °F 29.72 in West 2.1 mph 4 mph 81% 0.00 in 0 W/m2
02:38 50.5 °F 45.3 °F 29.72 in West 0.5 mph 3 mph 82% 0.00 in 0 W/m2
02:44 50.5 °F 45.2 °F 29.72 in West 1.3 mph 3 mph 82% 0.00 in 0 W/m2
02:49 50.4 °F 45.1 °F 29.72 in West 0.8 mph 2 mph 82% 0.00 in 0 W/m2
02:54 50.4 °F 45.1 °F 29.72 in Calm   3 mph 82% 0.00 in 0 W/m2
02:59 50.4 °F 45.1 °F 29.72 in West 0.4 mph 2 mph 82% 0.00 in 0 W/m2
03:04 50.2 °F 45 °F 29.72 in West 0.8 mph 4 mph 82% 0.00 in 0 W/m2
03:09 50.2 °F 45 °F 29.72 in West 0.6 mph 4 mph 82% 0.00 in 0 W/m2
03:14 50.2 °F 45 °F 29.72 in West 1.7 mph 4 mph 82% 0.00 in 0 W/m2
03:19 50.3 °F 45 °F 29.72 in West 2.8 mph 4 mph 82% 0.00 in 0 W/m2
03:24 50.3 °F 45.1 °F 29.71 in West 1.6 mph 4 mph 82% 0.00 in 0 W/m2
03:29 50.4 °F 45.1 °F 29.71 in West 3.1 mph 6 mph 82% 0.00 in 0 W/m2
03:34 50.4 °F 45 °F 29.71 in West 3.5 mph 8 mph 81.4% 0.00 in 0 W/m2
03:39 50.5 °F 45 °F 29.71 in West 3.8 mph 8 mph 81% 0.00 in 0 W/m2
03:44 50.5 °F 45 °F 29.71 in West 4.7 mph 9 mph 81% 0.00 in 0 W/m2
03:49 50.5 °F 45 °F 29.71 in WNW 4.6 mph 9 mph 81% 0.00 in 0 W/m2
03:54 50.5 °F 45 °F 29.70 in WNW 4.1 mph 9 mph 81% 0.00 in 0 W/m2
03:59 50.5 °F 45 °F 29.70 in WNW 3.5 mph 9 mph 81% 0.00 in 0 W/m2
04:04 50.5 °F 45 °F 29.70 in WNW 3.7 mph 8 mph 81% 0.00 in 0 W/m2
04:09 50.5 °F 45 °F 29.70 in West 3.3 mph 9 mph 81% 0.00 in 0 W/m2
04:14 50.5 °F 45 °F 29.70 in West 3.6 mph 8 mph 81% 0.00 in 0 W/m2
04:19 50.4 °F 45 °F 29.70 in West 2.2 mph 5 mph 81.4% 0.00 in 0 W/m2
04:24 50.4 °F 45.1 °F 29.70 in West 2 mph 5 mph 82% 0.00 in 0 W/m2
04:29 50.3 °F 45.1 °F 29.70 in West 1.3 mph 4 mph 82% 0.00 in 0 W/m2
04:34 50.2 °F 45 °F 29.70 in West 1.4 mph 4 mph 82% 0.00 in 0 W/m2
04:39 50.2 °F 45.1 °F 29.70 in West 0.9 mph 3 mph 82.6% 0.00 in 0 W/m2
04:44 50.2 °F 45.1 °F 29.70 in West 0.4 mph 3 mph 83% 0.00 in 0 W/m2
04:49 50 °F 45 °F 29.69 in Calm   1 mph 83% 0.00 in 0 W/m2
04:54 50 °F 45 °F 29.69 in West 1.1 mph 2 mph 83% 0.00 in 0 W/m2
04:59 49.8 °F 44.9 °F 29.69 in West 0.2 mph 2 mph 83.2% 0.00 in 0 W/m2
05:04 49.8 °F 44.9 °F 29.69 in Calm   1 mph 83.4% 0.00 in 0 W/m2
05:09 49.6 °F 45 °F 29.69 in Calm     84% 0.00 in 0 W/m2
05:14 49.6 °F 44.9 °F 29.69 in West 0.8 mph 3 mph 84% 0.00 in 0 W/m2
05:19 49.5 °F 44.8 °F 29.69 in West 2.8 mph 5 mph 84% 0.00 in 0 W/m2
05:24 49.5 °F 45 °F 29.69 in West 2 mph 4 mph 84.6% 0.00 in 0 W/m2
05:29 49.5 °F 45 °F 29.68 in West 0.8 mph 3 mph 84.6% 0.00 in 0 W/m2
05:34 49.5 °F 45.1 °F 29.68 in West 1.6 mph 4 mph 85% 0.00 in 0 W/m2
05:39 49.6 °F 45.2 °F 29.68 in West 1.1 mph 3 mph 85% 0.00 in 0 W/m2
05:44 49.6 °F 45.3 °F 29.68 in West 1.7 mph 3 mph 85% 0.00 in 0 W/m2
05:49 49.8 °F 45.5 °F 29.68 in West 2.3 mph 4 mph 85% 0.00 in 0 W/m2
05:54 50 °F 45.3 °F 29.68 in WNW 4.4 mph 8 mph 84.2% 0.00 in 0 W/m2
05:59 50.5 °F 45.6 °F 29.68 in WNW 3.5 mph 7 mph 83.5% 0.00 in 0 W/m2
06:04 50.6 °F 45.6 °F 29.68 in WNW 2.9 mph 6 mph 82.8% 0.00 in 0 W/m2
06:09 50.9 °F 45.6 °F 29.68 in WNW 4.8 mph 11 mph 81.8% 0.00 in 0 W/m2
06:14 51.2 °F 45.5 °F 29.68 in West 7.2 mph 14 mph 80.8% 0.00 in 0 W/m2
06:19 51.4 °F 45.5 °F 29.68 in West 7 mph 13 mph 80% 0.00 in 0 W/m2
06:24 51.4 °F 45.1 °F 29.68 in West 6.1 mph 10 mph 79% 0.00 in 0 W/m2
06:29 51.4 °F 45.1 °F 29.67 in West 6 mph 9 mph 79% 0.00 in 0 W/m2
06:34 51.3 °F 45 °F 29.67 in West 5.4 mph 13 mph 79% 0.00 in 0 W/m2
06:39 51.3 °F 45.2 °F 29.67 in West 4.7 mph 9 mph 79.8% 0.00 in 0 W/m2
06:44 51.1 °F 45.1 °F 29.68 in WNW 6 mph 11 mph 80% 0.00 in 0 W/m2
06:49 51.1 °F 45.3 °F 29.68 in WNW 3 mph 11 mph 80.4% 0.00 in 0 W/m2
06:54 51.1 °F 45.5 °F 29.68 in West 5.5 mph 9 mph 81% 0.00 in 0 W/m2
06:59 51.1 °F 45.5 °F 29.68 in WNW 4.5 mph 10 mph 81% 0.00 in 0 W/m2
07:04 50.9 °F 45.5 °F 29.68 in WNW 5.4 mph 10 mph 81.6% 0.00 in 0 W/m2
07:09 50.7 °F 45.5 °F 29.68 in WNW 3 mph 8 mph 82% 0.00 in 0 W/m2
07:14 50.6 °F 45.5 °F 29.68 in WNW 5 mph 8 mph 82.6% 0.00 in 0 W/m2
07:19 50.5 °F 45.5 °F 29.68 in WNW 3.3 mph 6 mph 83% 0.00 in 5 W/m2
07:24 50.5 °F 45.6 °F 29.68 in WNW 2.6 mph 6 mph 83.2% 0.00 in 5 W/m2
07:29 50.7 °F 46 °F 29.68 in West 4.8 mph 12 mph 84% 0.00 in 9 W/m2
07:34 50.9 °F 46.2 °F 29.68 in West 4.8 mph 13 mph 84% 0.00 in 21 W/m2
07:39 50.7 °F 46.3 °F 29.67 in West 5.9 mph 11 mph 84.6% 0.00 in 23 W/m2
07:44 50.7 °F 46.4 °F 29.67 in West 5.8 mph 10 mph 85% 0.00 in 25 W/m2
07:48 50.5 °F 46.2 °F 29.67 in West 7.5 mph 11 mph 85% 0.00 in 23 W/m2
07:54 50.5 °F 46.3 °F 29.67 in WNW 4.4 mph 10 mph 85.2% 0.00 in 32 W/m2
07:59 50.5 °F 46.6 °F 29.67 in WNW 5.5 mph 13 mph 86% 0.00 in 40 W/m2
08:04 50.4 °F 46.5 °F 29.67 in WNW 5.2 mph 9 mph 86% 0.00 in 44 W/m2
08:09 50.4 °F 46.6 °F 29.66 in West 5.3 mph 9 mph 87% 0.00 in 40 W/m2
08:14 50.4 °F 46.6 °F 29.66 in West 6.6 mph 10 mph 87% 0.00 in 40 W/m2
08:19 50.6 °F 47.1 °F 29.66 in WNW 6.4 mph 11 mph 87.6% 0.00 in 54 W/m2
08:24 50.9 °F 47.5 °F 29.66 in West 4.7 mph 11 mph 88% 0.00 in 62 W/m2
08:29 51.2 °F 47.7 °F 29.66 in WNW 6.1 mph 11 mph 88% 0.00 in 111 W/m2
08:34 51.4 °F 47.9 °F 29.66 in West 5.4 mph 12 mph 88% 0.00 in 116 W/m2
08:39 51.6 °F 48.2 °F 29.66 in WNW 6 mph 11 mph 88% 0.00 in 123 W/m2
08:44 52.1 °F 48.3 °F 29.65 in West 4 mph 10 mph 87.3% 0.00 in 109 W/m2
08:49 52.2 °F 48.4 °F 29.65 in West 5.2 mph 13 mph 87% 0.00 in 130 W/m2
08:54 52.3 °F 48.6 °F 29.65 in West 5.3 mph 13 mph 87% 0.00 in 120 W/m2
08:59 52.4 °F 48.6 °F 29.65 in West 4.6 mph 11 mph 87% 0.00 in 172 W/m2
09:04 52.6 °F 48.8 °F 29.65 in West 5.2 mph 15 mph 87% 0.00 in 149 W/m2
09:09 52.8 °F 48.7 °F 29.65 in West 7.8 mph 13 mph 86.2% 0.00 in 204 W/m2
09:14 52.8 °F 48.7 °F 29.65 in West 9.2 mph 16 mph 86% 0.00 in 127 W/m2
09:19 52.8 °F 48.7 °F 29.65 in West 6.8 mph 14 mph 86% 0.00 in 141 W/m2
09:24 53 °F 48.9 °F 29.65 in West 5 mph 11 mph 86% 0.00 in 353 W/m2
09:29 53.3 °F 49.1 °F 29.65 in West 7.7 mph 14 mph 85.5% 0.00 in 225 W/m2
09:34 53.5 °F 49.2 °F 29.65 in West 7.5 mph 13 mph 85% 0.00 in 230 W/m2
09:39 53.9 °F 49.6 °F 29.65 in West 5.4 mph 9 mph 85% 0.00 in 272 W/m2
09:44 54.3 °F 49.8 °F 29.65 in WNW 8.3 mph 13 mph 84.8% 0.00 in 292 W/m2
09:49 54.8 °F 50 °F 29.65 in West 8.2 mph 20 mph 83.6% 0.00 in 294 W/m2
09:54 55.2 °F 49.9 °F 29.65 in West 8.2 mph 18 mph 82.4% 0.00 in 309 W/m2
09:59 55.5 °F 49.5 °F 29.65 in WNW 6.8 mph 18 mph 80.4% 0.00 in 318 W/m2
10:04 55.7 °F 49.2 °F 29.65 in West 9.4 mph 19 mph 79% 0.00 in 388 W/m2
10:09 55.9 °F 49.1 °F 29.65 in West 10 mph 20 mph 78% 0.00 in 388 W/m2
10:14 55.9 °F 48.9 °F 29.65 in WNW 11.3 mph 20 mph 77% 0.00 in 381 W/m2
10:19 55.9 °F 48.8 °F 29.64 in WNW 10.8 mph 21 mph 76.5% 0.00 in 445 W/m2
10:24 56.1 °F 48.8 °F 29.65 in WNW 12.2 mph 21 mph 76% 0.00 in 503 W/m2
10:29 56.4 °F 48.6 °F 29.65 in WNW 10.3 mph 25 mph 75% 0.00 in 478 W/m2
10:34 56.4 °F 48.6 °F 29.64 in WNW 7.4 mph 19 mph 75% 0.00 in 490 W/m2
10:39 56.7 °F 48.6 °F 29.64 in WNW 11.4 mph 25 mph 74.8% 0.00 in 457 W/m2
10:44 56.7 °F 48.4 °F 29.64 in West 9.9 mph 22 mph 74% 0.00 in 536 W/m2
10:49 56.5 °F 48.4 °F 29.64 in WNW 9.8 mph 22 mph 74% 0.00 in 536 W/m2
10:54 56.9 °F 48.9 °F 29.64 in West 9.4 mph 16 mph 75% 0.00 in 606 W/m2
10:59 56.9 °F 48.8 °F 29.63 in West 13.3 mph 24 mph 74.4% 0.00 in 322 W/m2
11:04 56.3 °F 48.2 °F 29.64 in WNW 12.8 mph 18 mph 74% 0.00 in 285 W/m2
11:09 56.1 °F 48.3 °F 29.64 in WNW 7.9 mph 18 mph 74.6% 0.00 in 315 W/m2
11:14 56.6 °F 48.7 °F 29.64 in WNW 7 mph 16 mph 75% 0.00 in 315 W/m2
11:19 56.5 °F 48.4 °F 29.64 in West 11.2 mph 21 mph 74% 0.00 in 243 W/m2
11:24 56.4 °F 47.9 °F 29.63 in West 9.6 mph 19 mph 73% 0.00 in 165 W/m2
11:29 56.1 °F 47.6 °F 29.63 in WNW 7.5 mph 15 mph 72.8% 0.00 in 93 W/m2
11:34 56.1 °F 47.6 °F 29.63 in WNW 8.2 mph 13 mph 72.8% 0.00 in 121 W/m2
11:39 56 °F 47.6 °F 29.63 in NW 8.3 mph 15 mph 73% 0.00 in 120 W/m2
11:44 55.9 °F 47.5 °F 29.63 in West 5.8 mph 15 mph 73% 0.00 in 107 W/m2
11:49 55.4 °F 47.3 °F 29.63 in West 10 mph 17 mph 74% 0.00 in 144 W/m2
11:54 55.2 °F 47.5 °F 29.63 in West 6.2 mph 13 mph 75% 0.00 in 211 W/m2
11:59 55.5 °F 47.8 °F 29.62 in West 7.6 mph 16 mph 75% 0.00 in 216 W/m2
12:04 55.8 °F 48 °F 29.62 in West 7 mph 16 mph 75% 0.00 in 134 W/m2
12:09 55.7 °F 47.8 °F 29.62 in WNW 10.2 mph 18 mph 74.6% 0.00 in 93 W/m2
12:14 55.6 °F 47.5 °F 29.62 in West 7.5 mph 15 mph 74% 0.00 in 100 W/m2
12:19 55.6 °F 47.7 °F 29.62 in West 6.5 mph 12 mph 74.8% 0.00 in 128 W/m2
12:24 55.6 °F 47.8 °F 29.61 in WNW 9.2 mph 15 mph 75% 0.00 in 155 W/m2
12:29 55.5 °F 47.8 °F 29.62 in WNW 13 mph 22 mph 75% 0.00 in 185 W/m2
12:34 55.4 °F 47.7 °F 29.62 in WNW 7.1 mph 22 mph 75% 0.00 in 171 W/m2
12:39 55.6 °F 47.8 °F 29.62 in WNW 12.6 mph 19 mph 75% 0.00 in 167 W/m2
12:44 55.2 °F 47.8 °F 29.62 in WNW 11.1 mph 17 mph 75.8% 0.00 in 141 W/m2
12:49 55.2 °F 48 °F 29.62 in West 8.6 mph 17 mph 76.6% 0.00 in 130 W/m2
12:54 55 °F 48.2 °F 29.62 in WNW 6.7 mph 15 mph 77.4% 0.00 in 114 W/m2
12:59 55 °F 48.4 °F 29.61 in WNW 6.4 mph 16 mph 78% 0.00 in 197 W/m2
13:04 55.3 °F 48.7 °F 29.61 in NW 3.8 mph 10 mph 78% 0.00 in 185 W/m2
13:09 55.5 °F 48.8 °F 29.61 in NNW 5 mph 9 mph 78% 0.00 in 97 W/m2
13:14 55.2 °F 48.6 °F 29.61 in NNW 5.5 mph 8 mph 78.3% 0.00 in 91 W/m2
13:19 54.9 °F 48.6 °F 29.61 in NW 4.1 mph 8 mph 79% 0.00 in 142 W/m2
13:24 54.9 °F 48.6 °F 29.61 in NW 3.8 mph 7 mph 79% 0.00 in 179 W/m2
13:29 54.9 °F 48.6 °F 29.61 in WNW 5.5 mph 7 mph 79% 0.00 in 290 W/m2
13:34 55.2 °F 48.7 °F 29.61 in NW 5.5 mph 11 mph 78.4% 0.00 in 320 W/m2
13:39 55.7 °F 48.7 °F 29.60 in WNW 5.7 mph 12 mph 77.2% 0.00 in 239 W/m2
13:44 56.3 °F 48.8 °F 29.60 in WNW 7.2 mph 15 mph 75.8% 0.00 in 468 W/m2
13:49 57.3 °F 48.8 °F 29.60 in WNW 10.4 mph 17 mph 73.6% 0.00 in 480 W/m2
13:54 57.6 °F 48.1 °F 29.60 in WNW 9.6 mph 20 mph 70.8% 0.00 in 153 W/m2
13:59 56.9 °F 48 °F 29.60 in NNW 7.4 mph 13 mph 72.2% 0.00 in 149 W/m2
14:04 56.2 °F 48.3 °F 29.60 in NW 7 mph 13 mph 74.4% 0.00 in 186 W/m2
14:09 55.9 °F 48.3 °F 29.60 in NW 4.8 mph 13 mph 75.2% 0.00 in 160 W/m2
14:14 55.9 °F 48.5 °F 29.59 in NNW 4.2 mph 10 mph 76% 0.00 in 234 W/m2
14:19 55.9 °F 48.8 °F 29.59 in NNW 2.5 mph 7 mph 77% 0.00 in 260 W/m2
14:24 55.9 °F 48.9 °F 29.59 in NW 4.4 mph 9 mph 77% 0.00 in 253 W/m2
14:29 55.9 °F 48.9 °F 29.59 in NW 5.4 mph 9 mph 77% 0.00 in 192 W/m2
14:34 56 °F 48.7 °F 29.59 in WNW 4.9 mph 9 mph 76.2% 0.00 in 199 W/m2
14:39 56.4 °F 48.9 °F 29.59 in West 5.5 mph 11 mph 75.8% 0.00 in 169 W/m2
14:44 56.8 °F 48.6 °F 29.59 in WNW 5.2 mph 11 mph 74.2% 0.00 in 105 W/m2
14:49 56.8 °F 48 °F 29.59 in West 5.8 mph 14 mph 72.6% 0.00 in 107 W/m2
14:54 56.8 °F 47.7 °F 29.59 in West 6.7 mph 17 mph 71.8% 0.00 in 109 W/m2
14:59 56.7 °F 47.8 °F 29.59 in West 7.8 mph 17 mph 72.4% 0.00 in 155 W/m2
15:04 56.1 °F 47.9 °F 29.59 in West 7.5 mph 16 mph 73.8% 0.00 in 128 W/m2
15:09 55.8 °F 48.1 °F 29.58 in West 6.8 mph 14 mph 75.2% 0.00 in 155 W/m2
15:14 55.9 °F 48.5 °F 29.58 in West 6.4 mph 16 mph 75.8% 0.00 in 190 W/m2
15:19 56.3 °F 48.7 °F 29.58 in WNW 6 mph 12 mph 75.6% 0.00 in 183 W/m2
15:24 56.7 °F 48.6 °F 29.59 in WNW 6.7 mph 14 mph 74.8% 0.00 in 111 W/m2
15:29 56.6 °F 47.8 °F 29.59 in WNW 9 mph 17 mph 72.6% 0.00 in 113 W/m2
15:34 56.5 °F 47.1 °F 29.58 in WNW 10.4 mph 18 mph 70.8% 0.00 in 113 W/m2
15:39 56.7 °F 46.9 °F 29.58 in WNW 7 mph 16 mph 70% 0.00 in 123 W/m2
15:44 56.7 °F 47.1 °F 29.58 in WNW 9.9 mph 16 mph 70.6% 0.00 in 142 W/m2
15:49 56.5 °F 47.2 °F 29.59 in WNW 9.6 mph 23 mph 71.2% 0.00 in 176 W/m2
15:54 56.4 °F 47.7 °F 29.59 in NNW 5.8 mph 16 mph 72.6% 0.00 in 176 W/m2
15:59 55.9 °F 47.7 °F 29.58 in NW 7.8 mph 16 mph 73.8% 0.00 in 155 W/m2
16:04 55.8 °F 47.9 °F 29.58 in NW 4.6 mph 9 mph 74.8% 0.00 in 130 W/m2
16:09 55.6 °F 47.8 °F 29.58 in West 4.1 mph 12 mph 75% 0.00 in 121 W/m2
16:14 55.6 °F 47.8 °F 29.58 in WNW 6.3 mph 12 mph 75% 0.00 in 155 W/m2
16:19 55.6 °F 47.8 °F 29.58 in WNW 7.6 mph 14 mph 75% 0.00 in 149 W/m2
16:24 55.6 °F 47.8 °F 29.58 in WNW 7 mph 14 mph 75% 0.00 in 137 W/m2
16:29 55.6 °F 47.8 °F 29.58 in West 7.7 mph 14 mph 75% 0.00 in 128 W/m2
16:34 55.5 °F 47.7 °F 29.58 in West 6.2 mph 12 mph 75% 0.00 in 128 W/m2
16:39 55.5 °F 47.7 °F 29.58 in WNW 6.7 mph 13 mph 75% 0.00 in 111 W/m2
16:44 55.4 °F 47.7 °F 29.58 in WNW 7.5 mph 10 mph 75% 0.00 in 100 W/m2
16:49 55.2 °F 47.5 °F 29.58 in WNW 7.2 mph 12 mph 75% 0.00 in 91 W/m2
16:54 55.2 °F 47.5 °F 29.58 in West 5 mph 9 mph 75% 0.00 in 70 W/m2
16:59 55.2 °F 47.6 °F 29.57 in WNW 4.5 mph 10 mph 75.4% 0.00 in 98 W/m2
17:04 55.4 °F 48 °F 29.57 in West 4.2 mph 10 mph 76% 0.00 in 100 W/m2
17:09 55.4 °F 48 °F 29.57 in West 4.4 mph 9 mph 76% 0.00 in 83 W/m2
17:14 55.4 °F 48 °F 29.57 in WNW 4.5 mph 9 mph 76% 0.00 in 56 W/m2
17:19 55.4 °F 48 °F 29.57 in West 6.6 mph 11 mph 76% 0.00 in 58 W/m2
17:24 55.2 °F 47.8 °F 29.57 in West 5.2 mph 12 mph 76% 0.00 in 67 W/m2
17:29 55.2 °F 47.8 °F 29.57 in West 7.4 mph 14 mph 76% 0.00 in 70 W/m2
17:34 55.1 °F 47.8 °F 29.57 in West 7.6 mph 13 mph 76% 0.00 in 60 W/m2
17:39 55 °F 47.7 °F 29.56 in West 6 mph 13 mph 76% 0.00 in 49 W/m2
17:44 55 °F 47.7 °F 29.56 in West 6.9 mph 14 mph 76% 0.00 in 39 W/m2
17:49 55 °F 47.6 °F 29.56 in WNW 5.9 mph 12 mph 75.8% 0.00 in 37 W/m2
17:54 55 °F 47.3 °F 29.56 in WNW 6 mph 15 mph 75% 0.00 in 46 W/m2
17:59 55 °F 47.3 °F 29.57 in WNW 4.1 mph 10 mph 75% 0.00 in 44 W/m2
18:04 55 °F 47.3 °F 29.56 in WNW 5.6 mph 10 mph 75% 0.00 in 42 W/m2
18:09 55 °F 47.3 °F 29.56 in West 5.2 mph 10 mph 75% 0.00 in 32 W/m2
18:14 55 °F 47.2 °F 29.57 in West 4.4 mph 11 mph 75% 0.00 in 25 W/m2
18:19 54.8 °F 47 °F 29.57 in West 6 mph 9 mph 75% 0.00 in 19 W/m2
18:24 54.5 °F 47.1 °F 29.57 in West 5.6 mph 10 mph 76% 0.00 in 16 W/m2
18:29 54.3 °F 47 °F 29.57 in WNW 5.8 mph 9 mph 76.2% 0.00 in 16 W/m2
18:34 54.2 °F 47.1 °F 29.57 in West 3.7 mph 10 mph 76.8% 0.00 in 14 W/m2
18:39 54.1 °F 47.1 °F 29.57 in WNW 7 mph 11 mph 77% 0.00 in 9 W/m2
18:44 54.1 °F 47 °F 29.57 in West 4.3 mph 9 mph 77% 0.00 in 5 W/m2
18:49 54 °F 46.9 °F 29.57 in WNW 4.3 mph 11 mph 77% 0.00 in 0 W/m2
18:54 54 °F 47.2 °F 29.57 in WNW 4.2 mph 11 mph 77.8% 0.00 in 0 W/m2
18:59 53.9 °F 47.2 °F 29.57 in West 3.6 mph 7 mph 78% 0.00 in 0 W/m2
19:04 53.8 °F 47.1 °F 29.57 in West 3.1 mph 7 mph 78% 0.00 in 0 W/m2
19:09 53.8 °F 47.1 °F 29.57 in West 2.4 mph 6 mph 78% 0.00 in 0 W/m2
19:14 53.6 °F 47.3 °F 29.57 in West 3.1 mph 6 mph 79% 0.00 in 0 W/m2
19:19 53.4 °F 47.2 °F 29.57 in West 4.9 mph 7 mph 79.2% 0.00 in 0 W/m2
19:24 53.3 °F 47.3 °F 29.57 in West 3.2 mph 7 mph 80% 0.00 in 0 W/m2
19:29 53.2 °F 47.5 °F 29.57 in WNW 4 mph 6 mph 80.8% 0.00 in 0 W/m2
19:34 53.2 °F 47.5 °F 29.57 in West 3.1 mph 5 mph 81% 0.00 in 0 W/m2
19:39 53.1 °F 47.4 °F 29.57 in West 3.6 mph 7 mph 81% 0.00 in 0 W/m2
19:44 53.1 °F 47.3 °F 29.57 in WNW 2.1 mph 7 mph 81% 0.00 in 0 W/m2
19:49 53.1 °F 47.3 °F 29.57 in West 4.8 mph 9 mph 81% 0.00 in 0 W/m2
19:54 53.2 °F 47.4 °F 29.57 in WNW 4.5 mph 9 mph 80.4% 0.00 in 0 W/m2
19:59 53.3 °F 46.9 °F 29.57 in WNW 5.7 mph 9 mph 78.6% 0.00 in 0 W/m2
20:04 53.5 °F 46.7 °F 29.57 in West 5.6 mph 9 mph 77.4% 0.00 in 0 W/m2
20:09 53.6 °F 46.6 °F 29.57 in WNW 3.7 mph 9 mph 77% 0.00 in 0 W/m2
20:14 53.6 °F 46.6 °F 29.57 in WNW 3.6 mph 7 mph 77% 0.00 in 0 W/m2
20:19 53.6 °F 46.6 °F 29.57 in WNW 4.2 mph 8 mph 77% 0.00 in 0 W/m2
20:24 53.5 °F 46.5 °F 29.57 in WNW 2.7 mph 6 mph 77% 0.00 in 0 W/m2
20:29 53.6 °F 46.2 °F 29.57 in WNW 2.4 mph 7 mph 76% 0.00 in 0 W/m2
20:34 53.4 °F 46 °F 29.57 in WNW 2.1 mph 5 mph 76% 0.00 in 0 W/m2
20:39 53.4 °F 46 °F 29.57 in West 2.9 mph 6 mph 76% 0.00 in 0 W/m2
20:44 53.4 °F 46 °F 29.57 in West 4.6 mph 8 mph 76% 0.00 in 0 W/m2
20:49 53.2 °F 45.9 °F 29.58 in West 2.4 mph 6 mph 76% 0.00 in 0 W/m2
20:54 53.2 °F 45.9 °F 29.58 in WNW 3.5 mph 6 mph 76% 0.00 in 0 W/m2
20:59 53.1 °F 45.8 °F 29.58 in WNW 4.9 mph 10 mph 76% 0.00 in 0 W/m2
21:04 53.1 °F 45.4 °F 29.58 in WNW 3.1 mph 8 mph 75.2% 0.00 in 0 W/m2
21:09 53.1 °F 45.3 °F 29.58 in WNW 2.8 mph 9 mph 74.8% 0.00 in 0 W/m2
21:14 53.1 °F 45 °F 29.58 in WNW 4 mph 6 mph 74% 0.00 in 0 W/m2
21:19 53.1 °F 45 °F 29.58 in NNW 4.1 mph 7 mph 74% 0.00 in 0 W/m2
21:24 53.1 °F 44.8 °F 29.58 in WNW 3.5 mph 8 mph 73.6% 0.00 in 0 W/m2
21:29 53.1 °F 44.6 °F 29.58 in WNW 4 mph 9 mph 73% 0.00 in 0 W/m2
21:34 52.9 °F 44.4 °F 29.58 in WNW 3.7 mph 10 mph 73% 0.00 in 0 W/m2
21:39 52.9 °F 44.4 °F 29.58 in WNW 3.5 mph 8 mph 73% 0.00 in 0 W/m2
21:44 52.8 °F 44.3 °F 29.58 in NW 3.2 mph 7 mph 73% 0.00 in 0 W/m2
21:49 52.6 °F 44.4 °F 29.58 in NW 2.6 mph 6 mph 73.8% 0.00 in 0 W/m2
21:54 52.4 °F 44.3 °F 29.58 in NW 4.1 mph 8 mph 74% 0.00 in 0 W/m2
21:59 52.3 °F 44.2 °F 29.58 in WNW 1.2 mph 5 mph 74% 0.00 in 0 W/m2
22:04 52.2 °F 44.1 °F 29.59 in NW 2.5 mph 5 mph 74% 0.00 in 0 W/m2
22:09 52 °F 44 °F 29.59 in NW 2.4 mph 4 mph 74.2% 0.00 in 0 W/m2
22:14 51.8 °F 44.1 °F 29.58 in NW 2.1 mph 4 mph 75% 0.00 in 0 W/m2
22:19 51.6 °F 43.9 °F 29.58 in NW 1.9 mph 4 mph 75% 0.00 in 0 W/m2
22:24 51.4 °F 43.7 °F 29.58 in NW 0.9 mph 3 mph 75.2% 0.00 in 0 W/m2
22:29 51.3 °F 43.8 °F 29.59 in NW 0.6 mph 3 mph 75.8% 0.00 in 0 W/m2
22:34 51.1 °F 43.7 °F 29.59 in NW 0.2 mph 2 mph 76% 0.00 in 0 W/m2
22:39 50.9 °F 43.6 °F 29.59 in NW 0.4 mph 1 mph 76.4% 0.00 in 0 W/m2
22:44 50.6 °F 43.5 °F 29.59 in NW 0.5 mph 1 mph 76.8% 0.00 in 0 W/m2
22:49 50.3 °F 43.3 °F 29.59 in NW 0.5 mph 2 mph 77% 0.00 in 0 W/m2
22:54 49.9 °F 43.2 °F 29.59 in NW 0.5 mph 2 mph 77.8% 0.00 in 0 W/m2
22:59 49.7 °F 43.1 °F 29.59 in NW 0.5 mph 2 mph 78% 0.00 in 0 W/m2
23:04 49.4 °F 42.9 °F 29.59 in NW 1 mph 3 mph 78.4% 0.00 in 0 W/m2
23:09 49.3 °F 43 °F 29.59 in NW 0.2 mph 1 mph 79% 0.00 in 0 W/m2
23:14 49 °F 42.7 °F 29.59 in Calm   1 mph 79% 0.00 in 0 W/m2
23:19 48.8 °F 42.7 °F 29.59 in Calm     79.6% 0.00 in 0 W/m2
23:24 48.6 °F 42.6 °F 29.59 in NW 0.2 mph 1 mph 80% 0.00 in 0 W/m2
23:29 48.5 °F 42.7 °F 29.59 in NW 0.7 mph 2 mph 80.6% 0.00 in 0 W/m2
23:34 48.1 °F 42.5 °F 29.59 in NW 0.8 mph 2 mph 81% 0.00 in 0 W/m2
23:39 47.8 °F 42.3 °F 29.59 in NW 0.2 mph 2 mph 81.4% 0.00 in 0 W/m2
23:44 47.6 °F 42.4 °F 29.59 in Calm     82% 0.00 in 0 W/m2
23:49 47.4 °F 42.3 °F 29.59 in Calm     82.4% 0.00 in 0 W/m2
23:54 47.2 °F 42.4 °F 29.59 in NW 1.8 mph 3 mph 83% 0.00 in 0 W/m2
23:59 47.5 °F 42.6 °F 29.59 in NW 0.6 mph 2 mph 83.4% 0.00 in 0 W/m2
Bath Spa Weather
Compliments of Weather Underground - 2 mb